Terminal Aerodrome Forecast
Issued by NWS Shreveport, LA

Home | Current Version | Previous Version | Text Only | Print | Product List | Glossary On
Versions: 1 2 3 4 5 6 7 8 9 10 11 12 13 14 15 16
000
FTUS44 KSHV 021700 CCA
TAFELD
TAF COR
KELD 021741Z 0218/0318 04010KT 3SM BR OVC004
     FM030000 06004KT 2SM BR OVC003
     FM030600 13002KT 1/2SM FG OVC001
     FM031500 17004KT 1/2SM FG OVC004=

USA.gov is the U.S. government's official web portal to all federal, state and local government web resources and services.